Knife River, Minnesota
Current Conditions -  °F | °C
As of 8:55 AM on Monday 22 Dec 2014 (Local Time) from KTWM Reporting Station
Overcast Overcast  
Wind Chill: 32°   Ceiling: 300
Heat Index: 36°   Visibility: 2mi
Dew Point: 30°   Wind: 5mph
Humidity: 81%   Direction: 60°ENE
Pressure: 29.71"   Gusts: NA
Location:  46.95°N, 91.78°W
Report Text: KTWM 221455Z AUTO 06004KT 2SM OVC003 02/M01 A2971 RMK AO2
Loading
Personal Weather Stations






























Interactive Weather Map New forecast layout! Learn more

10-Day Weather Forecast

Advertisements
Track Severe Weather on mobile